Shark River Manor, New Jersey
Current Conditions -  °F | °C
As of 9:15 AM on Thursday 30 Oct 2014 (Local Time) from KBLM Reporting Station
Scattered Clouds Scattered Clouds  
Wind Chill: 41°   Ceiling: Unl
Heat Index: 46°   Visibility: 5mi
Dew Point: 41°   Wind: 10mph
Humidity: 81%   Direction: 290°WNW
Pressure: 30"   Gusts: NA
Location:  40.1681°N, 74.0774°W
Report Text: KBLM 301315Z AUTO 29009KT 5SM SCT003 08/05 A3000 RMK AO1
Loading
Personal Weather Stations






























Interactive Weather Map New forecast layout! Learn more

10-Day Weather Forecast

Advertisements
Track Severe Weather on mobile